sensor_id;sensor_type;location;lat;lon;timestamp;P1;P2;P0
65574;PMS5003;52216;54.942;73.394;2022-07-01T00:02:05;0.00;0.00;0.00
65574;PMS5003;52216;54.942;73.394;2022-07-01T00:05:12;0.00;0.00;0.00
65574;PMS5003;52216;54.942;73.394;2022-07-01T00:08:19;1.00;1.00;0.00
65574;PMS5003;52216;54.942;73.394;2022-07-01T00:11:22;1.00;1.00;0.00
65574;PMS5003;52216;54.942;73.394;2022-07-01T00:14:26;0.00;0.00;0.00
65574;PMS5003;52216;54.942;73.394;2022-07-01T00:17:29;0.00;0.00;0.00
65574;PMS5003;52216;54.942;73.394;2022-07-01T00:20:32;0.75;0.75;0.00
65574;PMS5003;52216;54.942;73.394;2022-07-01T00:23:35;0.00;0.00;0.00
65574;PMS5003;52216;54.942;73.394;2022-07-01T00:26:39;0.00;0.00;0.00
65574;PMS5003;52216;54.942;73.394;2022-07-01T00:29:42;0.00;0.00;0.00
65574;PMS5003;52216;54.942;73.394;2022-07-01T00:32:45;0.00;0.00;0.00
65574;PMS5003;52216;54.942;73.394;2022-07-01T00:35:49;0.00;0.00;0.00
65574;PMS5003;52216;54.942;73.394;2022-07-01T00:38:52;0.00;0.00;0.00
65574;PMS5003;52216;54.942;73.394;2022-07-01T00:41:57;1.00;1.00;0.00
65574;PMS5003;52216;54.942;73.394;2022-07-01T00:45:02;0.25;0.00;0.00
65574;PMS5003;52216;54.942;73.394;2022-07-01T00:48:05;0.00;0.00;0.00
65574;PMS5003;52216;54.942;73.394;2022-07-01T00:51:09;0.00;0.00;0.00
65574;PMS5003;52216;54.942;73.394;2022-07-01T00:54:12;0.00;0.00;0.00
65574;PMS5003;52216;54.942;73.394;2022-07-01T00:57:16;0.00;0.00;0.00
65574;PMS5003;52216;54.942;73.394;2022-07-01T01:00:24;0.00;0.00;0.00
65574;PMS5003;52216;54.942;73.394;2022-07-01T01:03:29;0.00;0.00;0.00
65574;PMS5003;52216;54.942;73.394;2022-07-01T01:06:33;0.00;0.00;0.00
65574;PMS5003;52216;54.942;73.394;2022-07-01T01:09:36;0.50;0.50;0.00
65574;PMS5003;52216;54.942;73.394;2022-07-01T01:12:39;3.75;3.75;0.00
65574;PMS5003;52216;54.942;73.394;2022-07-01T01:15:52;1.00;1.00;0.00
65574;PMS5003;52216;54.942;73.394;2022-07-01T01:18:55;1.00;1.00;0.00
65574;PMS5003;52216;54.942;73.394;2022-07-01T01:21:59;0.00;0.00;0.00
65574;PMS5003;52216;54.942;73.394;2022-07-01T01:25:02;0.00;0.00;0.00
65574;PMS5003;52216;54.942;73.394;2022-07-01T01:28:06;0.00;0.00;0.00
65574;PMS5003;52216;54.942;73.394;2022-07-01T01:31:09;1.00;0.00;0.00
65574;PMS5003;52216;54.942;73.394;2022-07-01T01:34:13;0.00;0.00;0.00
65574;PMS5003;52216;54.942;73.394;2022-07-01T01:37:16;0.00;0.00;0.00
65574;PMS5003;52216;54.942;73.394;2022-07-01T01:40:20;0.00;0.00;0.00
65574;PMS5003;52216;54.942;73.394;2022-07-01T01:43:23;0.00;0.00;0.00
65574;PMS5003;52216;54.942;73.394;2022-07-01T01:46:26;1.00;0.00;0.00
65574;PMS5003;52216;54.942;73.394;2022-07-01T01:49:31;0.00;0.00;0.00
65574;PMS5003;52216;54.942;73.394;2022-07-01T01:52:34;0.00;0.00;0.00
65574;PMS5003;52216;54.942;73.394;2022-07-01T01:55:39;1.00;0.00;0.00
65574;PMS5003;52216;54.942;73.394;2022-07-01T01:58:42;0.00;0.00;0.00
65574;PMS5003;52216;54.942;73.394;2022-07-01T02:01:48;1.00;1.00;0.00
65574;PMS5003;52216;54.942;73.394;2022-07-01T02:04:51;0.00;0.00;0.00
65574;PMS5003;52216;54.942;73.394;2022-07-01T02:07:54;0.00;0.00;0.00
65574;PMS5003;52216;54.942;73.394;2022-07-01T02:10:57;0.00;0.00;0.00
65574;PMS5003;52216;54.942;73.394;2022-07-01T02:14:10;1.00;0.00;0.00
65574;PMS5003;52216;54.942;73.394;2022-07-01T02:17:12;0.00;0.00;0.00
65574;PMS5003;52216;54.942;73.394;2022-07-01T02:20:15;0.00;0.00;0.00
65574;PMS5003;52216;54.942;73.394;2022-07-01T02:23:28;0.00;0.00;0.00
65574;PMS5003;52216;54.942;73.394;2022-07-01T02:26:42;0.00;0.00;0.00
65574;PMS5003;52216;54.942;73.394;2022-07-01T02:29:45;0.00;0.00;0.00
65574;PMS5003;52216;54.942;73.394;2022-07-01T02:32:48;0.00;0.00;0.00
65574;PMS5003;52216;54.942;73.394;2022-07-01T02:35:51;0.00;0.00;0.00
65574;PMS5003;52216;54.942;73.394;2022-07-01T02:38:54;0.75;0.00;0.00
65574;PMS5003;52216;54.942;73.394;2022-07-01T02:41:57;1.00;1.00;0.00
65574;PMS5003;52216;54.942;73.394;2022-07-01T02:45:18;1.00;1.00;0.00
65574;PMS5003;52216;54.942;73.394;2022-07-01T02:48:22;0.75;0.00;0.00
65574;PMS5003;52216;54.942;73.394;2022-07-01T02:51:30;0.00;0.00;0.00
65574;PMS5003;52216;54.942;73.394;2022-07-01T02:54:33;1.00;0.00;0.00
65574;PMS5003;52216;54.942;73.394;2022-07-01T02:57:36;0.00;0.00;0.00
65574;PMS5003;52216;54.942;73.394;2022-07-01T03:00:39;0.00;0.00;0.00
65574;PMS5003;52216;54.942;73.394;2022-07-01T03:03:48;0.00;0.00;0.00
65574;PMS5003;52216;54.942;73.394;2022-07-01T03:06:51;0.00;0.00;0.00
65574;PMS5003;52216;54.942;73.394;2022-07-01T03:09:54;2.00;1.00;0.00
65574;PMS5003;52216;54.942;73.394;2022-07-01T03:12:57;0.75;0.75;0.00
65574;PMS5003;52216;54.942;73.394;2022-07-01T03:16:01;0.00;0.00;0.00
65574;PMS5003;52216;54.942;73.394;2022-07-01T03:19:05;2.00;1.00;0.00
65574;PMS5003;52216;54.942;73.394;2022-07-01T03:22:09;1.50;1.00;0.00
65574;PMS5003;52216;54.942;73.394;2022-07-01T03:25:12;1.00;1.00;0.00
65574;PMS5003;52216;54.942;73.394;2022-07-01T03:28:15;0.00;0.00;0.00
65574;PMS5003;52216;54.942;73.394;2022-07-01T03:31:25;0.00;0.00;0.00
65574;PMS5003;52216;54.942;73.394;2022-07-01T03:34:33;1.00;0.75;0.00
65574;PMS5003;52216;54.942;73.394;2022-07-01T03:37:35;2.00;0.00;0.00
65574;PMS5003;52216;54.942;73.394;2022-07-01T03:40:39;1.00;0.00;0.00
65574;PMS5003;52216;54.942;73.394;2022-07-01T03:43:42;0.50;0.50;0.00
65574;PMS5003;52216;54.942;73.394;2022-07-01T03:46:50;1.25;0.50;0.00
65574;PMS5003;52216;54.942;73.394;2022-07-01T03:49:53;2.00;1.00;0.00
65574;PMS5003;52216;54.942;73.394;2022-07-01T03:53:06;3.75;3.75;0.00
65574;PMS5003;52216;54.942;73.394;2022-07-01T03:56:28;6.50;5.50;0.00
65574;PMS5003;52216;54.942;73.394;2022-07-01T03:59:35;9.75;8.75;2.50
65574;PMS5003;52216;54.942;73.394;2022-07-01T04:02:37;10.00;7.75;2.75
65574;PMS5003;52216;54.942;73.394;2022-07-01T04:05:40;5.00;5.00;3.00
65574;PMS5003;52216;54.942;73.394;2022-07-01T04:08:47;4.33;4.00;3.00
65574;PMS5003;52216;54.942;73.394;2022-07-01T04:11:54;5.00;4.00;2.00
65574;PMS5003;52216;54.942;73.394;2022-07-01T04:14:57;3.00;3.00;1.00
65574;PMS5003;52216;54.942;73.394;2022-07-01T04:18:00;4.50;4.00;1.00
65574;PMS5003;52216;54.942;73.394;2022-07-01T04:21:14;3.75;2.75;0.00
65574;PMS5003;52216;54.942;73.394;2022-07-01T04:24:44;2.00;2.00;0.00
65574;PMS5003;52216;54.942;73.394;2022-07-01T04:27:56;3.00;3.00;0.00
65574;PMS5003;52216;54.942;73.394;2022-07-01T04:31:00;5.00;3.25;0.00
65574;PMS5003;52216;54.942;73.394;2022-07-01T04:34:12;4.25;4.00;2.00
65574;PMS5003;52216;54.942;73.394;2022-07-01T04:37:15;3.00;3.00;2.00
65574;PMS5003;52216;54.942;73.394;2022-07-01T04:40:22;3.00;3.00;1.00
65574;PMS5003;52216;54.942;73.394;2022-07-01T04:43:26;1.75;1.75;0.00
65574;PMS5003;52216;54.942;73.394;2022-07-01T04:46:29;2.00;2.00;0.00
65574;PMS5003;52216;54.942;73.394;2022-07-01T04:49:40;5.50;5.00;0.00
65574;PMS5003;52216;54.942;73.394;2022-07-01T04:52:43;4.00;4.00;0.00
65574;PMS5003;52216;54.942;73.394;2022-07-01T04:55:51;3.00;3.00;0.00
65574;PMS5003;52216;54.942;73.394;2022-07-01T04:58:59;3.75;3.00;0.00
65574;PMS5003;52216;54.942;73.394;2022-07-01T05:02:02;2.00;1.00;0.00
65574;PMS5003;52216;54.942;73.394;2022-07-01T05:05:06;1.00;0.75;0.00
65574;PMS5003;52216;54.942;73.394;2022-07-01T05:08:14;2.25;1.00;0.00
65574;PMS5003;52216;54.942;73.394;2022-07-01T05:11:17;2.50;2.50;0.00
65574;PMS5003;52216;54.942;73.394;2022-07-01T05:14:20;1.50;1.50;0.00
65574;PMS5003;52216;54.942;73.394;2022-07-01T05:17:23;2.00;1.25;0.00
65574;PMS5003;52216;54.942;73.394;2022-07-01T05:20:46;2.00;2.00;0.00
65574;PMS5003;52216;54.942;73.394;2022-07-01T05:24:08;3.00;3.00;0.00
65574;PMS5003;52216;54.942;73.394;2022-07-01T05:27:11;3.00;3.00;0.00
65574;PMS5003;52216;54.942;73.394;2022-07-01T05:30:14;2.00;2.00;0.00
65574;PMS5003;52216;54.942;73.394;2022-07-01T05:33:22;0.00;0.00;0.00
65574;PMS5003;52216;54.942;73.394;2022-07-01T05:36:28;1.50;0.00;0.00
65574;PMS5003;52216;54.942;73.394;2022-07-01T05:39:31;2.75;2.00;0.00
65574;PMS5003;52216;54.942;73.394;2022-07-01T05:42:35;2.00;2.00;0.00
65574;PMS5003;52216;54.942;73.394;2022-07-01T05:45:44;2.00;1.00;0.00
65574;PMS5003;52216;54.942;73.394;2022-07-01T05:48:57;2.00;1.00;0.00
65574;PMS5003;52216;54.942;73.394;2022-07-01T05:52:00;2.00;2.00;0.00
65574;PMS5003;52216;54.942;73.394;2022-07-01T05:55:10;1.00;1.00;0.00
65574;PMS5003;52216;54.942;73.394;2022-07-01T05:58:13;3.50;3.00;0.00
65574;PMS5003;52216;54.942;73.394;2022-07-01T06:01:27;3.00;3.00;0.00
65574;PMS5003;52216;54.942;73.394;2022-07-01T06:04:30;5.00;4.75;0.00
65574;PMS5003;52216;54.942;73.394;2022-07-01T06:07:33;3.00;2.00;0.00
65574;PMS5003;52216;54.942;73.394;2022-07-01T06:10:36;3.75;3.75;0.00
65574;PMS5003;52216;54.942;73.394;2022-07-01T06:13:44;2.00;2.00;0.00
65574;PMS5003;52216;54.942;73.394;2022-07-01T06:16:47;4.00;3.00;0.00
65574;PMS5003;52216;54.942;73.394;2022-07-01T06:19:50;5.25;3.25;0.00
65574;PMS5003;52216;54.942;73.394;2022-07-01T06:22:53;3.00;3.00;0.00
65574;PMS5003;52216;54.942;73.394;2022-07-01T06:26:01;2.75;2.75;0.00
65574;PMS5003;52216;54.942;73.394;2022-07-01T06:29:07;3.00;1.50;0.00
65574;PMS5003;52216;54.942;73.394;2022-07-01T06:32:10;5.00;5.00;1.00
65574;PMS5003;52216;54.942;73.394;2022-07-01T06:35:18;3.00;3.00;0.00
65574;PMS5003;52216;54.942;73.394;2022-07-01T06:38:21;3.50;3.50;0.00
65574;PMS5003;52216;54.942;73.394;2022-07-01T06:41:25;3.00;3.00;0.00
65574;PMS5003;52216;54.942;73.394;2022-07-01T06:44:31;4.00;3.00;0.00
65574;PMS5003;52216;54.942;73.394;2022-07-01T06:47:44;3.00;3.00;0.00
65574;PMS5003;52216;54.942;73.394;2022-07-01T06:50:47;3.25;3.00;0.00
65574;PMS5003;52216;54.942;73.394;2022-07-01T06:53:50;4.00;4.00;0.25
65574;PMS5003;52216;54.942;73.394;2022-07-01T06:56:54;4.00;4.00;1.00
65574;PMS5003;52216;54.942;73.394;2022-07-01T06:59:57;3.00;3.00;0.00
65574;PMS5003;52216;54.942;73.394;2022-07-01T07:03:11;2.00;2.00;0.00
65574;PMS5003;52216;54.942;73.394;2022-07-01T07:06:14;2.00;2.00;0.00
65574;PMS5003;52216;54.942;73.394;2022-07-01T07:09:17;6.00;6.00;0.00
65574;PMS5003;52216;54.942;73.394;2022-07-01T07:12:25;3.00;3.00;1.33
65574;PMS5003;52216;54.942;73.394;2022-07-01T07:15:27;5.25;4.00;1.00
65574;PMS5003;52216;54.942;73.394;2022-07-01T07:18:30;6.25;4.75;1.00
65574;PMS5003;52216;54.942;73.394;2022-07-01T07:21:39;8.25;6.00;2.00
65574;PMS5003;52216;54.942;73.394;2022-07-01T07:24:42;3.00;3.00;1.00
65574;PMS5003;52216;54.942;73.394;2022-07-01T07:27:55;4.00;4.00;2.00
65574;PMS5003;52216;54.942;73.394;2022-07-01T07:30:56;5.00;4.00;1.00
65574;PMS5003;52216;54.942;73.394;2022-07-01T07:34:09;6.00;6.00;1.00
65574;PMS5003;52216;54.942;73.394;2022-07-01T07:37:16;4.00;3.00;1.75
65574;PMS5003;52216;54.942;73.394;2022-07-01T07:40:23;6.00;5.00;2.00
65574;PMS5003;52216;54.942;73.394;2022-07-01T07:43:26;6.75;4.50;2.00
65574;PMS5003;52216;54.942;73.394;2022-07-01T07:46:35;5.33;5.00;2.00
65574;PMS5003;52216;54.942;73.394;2022-07-01T07:49:38;5.00;5.00;2.00
65574;PMS5003;52216;54.942;73.394;2022-07-01T07:52:41;6.00;6.00;1.00
65574;PMS5003;52216;54.942;73.394;2022-07-01T07:55:49;7.00;6.00;2.00
65574;PMS5003;52216;54.942;73.394;2022-07-01T07:58:52;5.00;4.25;2.00
65574;PMS5003;52216;54.942;73.394;2022-07-01T08:01:54;7.00;6.00;1.00
65574;PMS5003;52216;54.942;73.394;2022-07-01T08:04:56;5.50;4.50;1.00
65574;PMS5003;52216;54.942;73.394;2022-07-01T08:07:58;8.00;7.00;4.00
65574;PMS5003;52216;54.942;73.394;2022-07-01T08:11:00;8.00;7.00;4.00
65574;PMS5003;52216;54.942;73.394;2022-07-01T08:14:03;7.00;6.00;4.00
65574;PMS5003;52216;54.942;73.394;2022-07-01T08:17:05;7.00;7.00;3.00
65574;PMS5003;52216;54.942;73.394;2022-07-01T08:20:07;6.25;6.25;3.00
65574;PMS5003;52216;54.942;73.394;2022-07-01T08:23:10;6.00;6.00;2.00
65574;PMS5003;52216;54.942;73.394;2022-07-01T08:26:26;5.75;5.50;3.00
65574;PMS5003;52216;54.942;73.394;2022-07-01T08:29:29;7.00;6.00;3.00
65574;PMS5003;52216;54.942;73.394;2022-07-01T08:32:32;6.00;5.00;2.25
65574;PMS5003;52216;54.942;73.394;2022-07-01T08:35:35;6.00;6.00;3.50
65574;PMS5003;52216;54.942;73.394;2022-07-01T08:38:38;6.00;6.00;3.00
65574;PMS5003;52216;54.942;73.394;2022-07-01T08:41:41;8.00;7.00;3.50
65574;PMS5003;52216;54.942;73.394;2022-07-01T08:44:45;6.25;5.75;2.00
65574;PMS5003;52216;54.942;73.394;2022-07-01T08:47:51;6.00;6.00;3.00
65574;PMS5003;52216;54.942;73.394;2022-07-01T08:50:52;7.00;6.25;2.25
65574;PMS5003;52216;54.942;73.394;2022-07-01T08:54:05;7.00;7.00;3.00
65574;PMS5003;52216;54.942;73.394;2022-07-01T08:57:07;7.00;7.00;3.00
65574;PMS5003;52216;54.942;73.394;2022-07-01T09:00:10;5.00;5.00;2.00
65574;PMS5003;52216;54.942;73.394;2022-07-01T09:03:22;6.25;6.00;3.00
65574;PMS5003;52216;54.942;73.394;2022-07-01T09:06:28;8.00;7.00;3.00
65574;PMS5003;52216;54.942;73.394;2022-07-01T09:09:37;7.00;7.00;2.00
65574;PMS5003;52216;54.942;73.394;2022-07-01T09:12:42;7.00;7.00;2.25
65574;PMS5003;52216;54.942;73.394;2022-07-01T09:15:54;7.00;6.00;3.67
65574;PMS5003;52216;54.942;73.394;2022-07-01T09:19:03;8.25;8.00;4.00
65574;PMS5003;52216;54.942;73.394;2022-07-01T09:22:06;10.00;7.00;4.00
65574;PMS5003;52216;54.942;73.394;2022-07-01T09:25:13;7.00;7.00;3.00
65574;PMS5003;52216;54.942;73.394;2022-07-01T09:28:19;7.75;7.00;4.25
65574;PMS5003;52216;54.942;73.394;2022-07-01T09:31:22;7.00;7.00;4.00
65574;PMS5003;52216;54.942;73.394;2022-07-01T09:34:34;9.00;7.00;3.50
65574;PMS5003;52216;54.942;73.394;2022-07-01T09:37:48;9.00;8.00;4.00
65574;PMS5003;52216;54.942;73.394;2022-07-01T09:40:57;10.00;9.00;4.00
65574;PMS5003;52216;54.942;73.394;2022-07-01T09:44:03;7.67;7.67;3.67
65574;PMS5003;52216;54.942;73.394;2022-07-01T09:47:15;10.00;9.25;5.50
65574;PMS5003;52216;54.942;73.394;2022-07-01T09:50:17;7.00;7.00;3.67
65574;PMS5003;52216;54.942;73.394;2022-07-01T09:53:19;9.75;8.25;4.00
65574;PMS5003;52216;54.942;73.394;2022-07-01T09:56:22;9.67;9.67;4.00
65574;PMS5003;52216;54.942;73.394;2022-07-01T09:59:24;12.00;11.00;5.00
65574;PMS5003;52216;54.942;73.394;2022-07-01T10:02:27;16.50;14.00;6.00
65574;PMS5003;52216;54.942;73.394;2022-07-01T10:05:49;15.40;13.40;5.00
65574;PMS5003;52216;54.942;73.394;2022-07-01T10:15:33;15.00;12.25;5.00
65574;PMS5003;52216;54.942;73.394;2022-07-01T10:18:35;12.00;11.00;6.00
65574;PMS5003;52216;54.942;73.394;2022-07-01T10:21:37;12.00;11.00;6.50
65574;PMS5003;52216;54.942;73.394;2022-07-01T10:24:39;15.00;13.00;5.50
65574;PMS5003;52216;54.942;73.394;2022-07-01T10:31:14;16.25;13.00;6.75
65574;PMS5003;52216;54.942;73.394;2022-07-01T10:34:19;15.50;14.00;8.25
65574;PMS5003;52216;54.942;73.394;2022-07-01T10:37:22;16.00;15.00;6.00
65574;PMS5003;52216;54.942;73.394;2022-07-01T10:40:44;17.50;16.00;7.00
65574;PMS5003;52216;54.942;73.394;2022-07-01T10:43:46;18.00;17.00;8.00
65574;PMS5003;52216;54.942;73.394;2022-07-01T10:46:55;19.00;18.00;8.33
65574;PMS5003;52216;54.942;73.394;2022-07-01T10:53:08;17.75;17.75;8.00
65574;PMS5003;52216;54.942;73.394;2022-07-01T10:56:11;18.50;17.00;7.50
65574;PMS5003;52216;54.942;73.394;2022-07-01T10:59:18;19.83;19.67;9.83
65574;PMS5003;52216;54.942;73.394;2022-07-01T11:02:31;21.80;21.40;10.00
65574;PMS5003;52216;54.942;73.394;2022-07-01T11:05:34;22.00;20.25;8.75
65574;PMS5003;52216;54.942;73.394;2022-07-01T11:08:49;22.67;22.00;9.00
65574;PMS5003;52216;54.942;73.394;2022-07-01T11:11:51;22.00;20.00;9.00
65574;PMS5003;52216;54.942;73.394;2022-07-01T11:14:56;20.00;19.00;8.00
65574;PMS5003;52216;54.942;73.394;2022-07-01T11:18:03;21.00;21.00;11.00
65574;PMS5003;52216;54.942;73.394;2022-07-01T11:21:08;19.33;19.00;9.00
65574;PMS5003;52216;54.942;73.394;2022-07-01T11:24:11;19.00;19.00;9.00
65574;PMS5003;52216;54.942;73.394;2022-07-01T11:27:13;20.00;20.00;8.25
65574;PMS5003;52216;54.942;73.394;2022-07-01T11:30:16;21.00;21.00;9.00
65574;PMS5003;52216;54.942;73.394;2022-07-01T11:33:18;20.00;19.00;8.00
65574;PMS5003;52216;54.942;73.394;2022-07-01T11:36:21;20.00;18.00;7.33
65574;PMS5003;52216;54.942;73.394;2022-07-01T11:39:47;21.00;20.00;10.00
65574;PMS5003;52216;54.942;73.394;2022-07-01T11:42:59;21.00;18.00;8.50
65574;PMS5003;52216;54.942;73.394;2022-07-01T11:46:02;20.00;17.25;8.00
65574;PMS5003;52216;54.942;73.394;2022-07-01T11:49:10;18.00;17.00;6.00
65574;PMS5003;52216;54.942;73.394;2022-07-01T11:52:15;18.50;18.50;7.50
65574;PMS5003;52216;54.942;73.394;2022-07-01T11:55:26;18.00;18.00;7.00
65574;PMS5003;52216;54.942;73.394;2022-07-01T12:01:52;19.00;18.00;7.00
65574;PMS5003;52216;54.942;73.394;2022-07-01T12:04:55;19.00;18.00;6.50
65574;PMS5003;52216;54.942;73.394;2022-07-01T12:07:58;17.00;16.00;8.00
65574;PMS5003;52216;54.942;73.394;2022-07-01T12:11:00;20.00;17.75;9.00
65574;PMS5003;52216;54.942;73.394;2022-07-01T12:14:03;19.00;17.67;11.00
65574;PMS5003;52216;54.942;73.394;2022-07-01T12:17:11;19.75;18.00;7.75
65574;PMS5003;52216;54.942;73.394;2022-07-01T12:20:30;20.00;20.00;7.00
65574;PMS5003;52216;54.942;73.394;2022-07-01T12:23:32;18.00;18.00;8.00
65574;PMS5003;52216;54.942;73.394;2022-07-01T12:26:45;20.60;20.00;8.00
65574;PMS5003;52216;54.942;73.394;2022-07-01T12:29:51;20.00;19.00;8.00
65574;PMS5003;52216;54.942;73.394;2022-07-01T12:32:53;20.00;19.00;9.00
65574;PMS5003;52216;54.942;73.394;2022-07-01T12:36:01;21.00;19.00;8.75
65574;PMS5003;52216;54.942;73.394;2022-07-01T12:39:07;20.00;18.00;9.00
65574;PMS5003;52216;54.942;73.394;2022-07-01T12:42:21;20.50;18.00;9.00
65574;PMS5003;52216;54.942;73.394;2022-07-01T12:45:25;22.00;21.00;9.00
65574;PMS5003;52216;54.942;73.394;2022-07-01T12:48:27;21.00;19.75;9.00
65574;PMS5003;52216;54.942;73.394;2022-07-01T12:51:30;19.25;19.25;8.00
65574;PMS5003;52216;54.942;73.394;2022-07-01T12:54:39;20.00;19.00;8.50
65574;PMS5003;52216;54.942;73.394;2022-07-01T12:57:53;20.00;19.00;9.00
65574;PMS5003;52216;54.942;73.394;2022-07-01T13:00:57;19.00;18.00;7.00
65574;PMS5003;52216;54.942;73.394;2022-07-01T13:03:59;18.00;18.00;7.00
65574;PMS5003;52216;54.942;73.394;2022-07-01T13:07:01;20.75;19.75;9.00
65574;PMS5003;52216;54.942;73.394;2022-07-01T13:10:05;20.00;20.00;7.00
65574;PMS5003;52216;54.942;73.394;2022-07-01T13:13:13;20.00;19.00;9.00
65574;PMS5003;52216;54.942;73.394;2022-07-01T13:16:16;18.00;18.00;8.67
65574;PMS5003;52216;54.942;73.394;2022-07-01T13:19:19;23.50;21.00;11.00
65574;PMS5003;52216;54.942;73.394;2022-07-01T13:22:31;21.00;20.00;7.75
65574;PMS5003;52216;54.942;73.394;2022-07-01T13:25:33;20.00;18.00;8.00
65574;PMS5003;52216;54.942;73.394;2022-07-01T13:28:41;18.00;17.00;7.00
65574;PMS5003;52216;54.942;73.394;2022-07-01T13:31:43;17.00;17.00;7.00
65574;PMS5003;52216;54.942;73.394;2022-07-01T13:34:45;17.00;17.00;8.00
65574;PMS5003;52216;54.942;73.394;2022-07-01T13:37:48;17.00;16.00;8.00
65574;PMS5003;52216;54.942;73.394;2022-07-01T13:41:00;17.00;15.00;6.50
65574;PMS5003;52216;54.942;73.394;2022-07-01T13:44:04;16.00;13.00;7.00
65574;PMS5003;52216;54.942;73.394;2022-07-01T13:47:06;17.00;14.25;7.00
65574;PMS5003;52216;54.942;73.394;2022-07-01T13:50:10;16.00;16.00;6.00
65574;PMS5003;52216;54.942;73.394;2022-07-01T13:53:14;17.00;17.00;8.00
65574;PMS5003;52216;54.942;73.394;2022-07-01T13:56:17;19.00;17.00;8.00
65574;PMS5003;52216;54.942;73.394;2022-07-01T13:59:20;17.25;17.00;6.00
65574;PMS5003;52216;54.942;73.394;2022-07-01T14:02:23;18.00;17.00;7.00
65574;PMS5003;52216;54.942;73.394;2022-07-01T14:05:25;17.00;16.00;5.00
65574;PMS5003;52216;54.942;73.394;2022-07-01T14:08:38;15.00;14.00;4.00
65574;PMS5003;52216;54.942;73.394;2022-07-01T14:11:50;14.00;14.00;5.00
65574;PMS5003;52216;54.942;73.394;2022-07-01T14:14:53;14.25;13.00;5.00
65574;PMS5003;52216;54.942;73.394;2022-07-01T14:18:05;13.75;12.75;6.00
65574;PMS5003;52216;54.942;73.394;2022-07-01T14:21:18;12.00;11.00;6.00
65574;PMS5003;52216;54.942;73.394;2022-07-01T14:24:23;18.00;15.33;7.00
65574;PMS5003;52216;54.942;73.394;2022-07-01T14:27:26;15.25;13.25;6.00
65574;PMS5003;52216;54.942;73.394;2022-07-01T14:30:29;14.67;13.67;6.00
65574;PMS5003;52216;54.942;73.394;2022-07-01T14:33:36;16.25;15.00;5.75
65574;PMS5003;52216;54.942;73.394;2022-07-01T14:36:39;16.00;15.00;6.00
65574;PMS5003;52216;54.942;73.394;2022-07-01T14:39:41;15.00;14.00;6.00
65574;PMS5003;52216;54.942;73.394;2022-07-01T14:42:43;18.00;16.00;8.00
65574;PMS5003;52216;54.942;73.394;2022-07-01T14:45:52;17.00;16.00;6.00
65574;PMS5003;52216;54.942;73.394;2022-07-01T14:49:04;16.50;14.50;6.00
65574;PMS5003;52216;54.942;73.394;2022-07-01T14:52:08;17.00;14.33;6.00
65574;PMS5003;52216;54.942;73.394;2022-07-01T14:55:11;16.75;16.75;6.00
65574;PMS5003;52216;54.942;73.394;2022-07-01T14:58:13;16.00;16.00;5.00
65574;PMS5003;52216;54.942;73.394;2022-07-01T15:01:15;16.00;15.00;6.00
65574;PMS5003;52216;54.942;73.394;2022-07-01T15:04:17;15.00;14.00;6.00
65574;PMS5003;52216;54.942;73.394;2022-07-01T15:07:19;17.50;16.00;6.00
65574;PMS5003;52216;54.942;73.394;2022-07-01T15:10:27;17.00;15.00;6.33
65574;PMS5003;52216;54.942;73.394;2022-07-01T15:13:39;17.25;14.00;7.00
65574;PMS5003;52216;54.942;73.394;2022-07-01T15:16:42;17.00;14.00;6.00
65574;PMS5003;52216;54.942;73.394;2022-07-01T15:19:45;17.00;16.75;8.00
65574;PMS5003;52216;54.942;73.394;2022-07-01T15:22:55;17.80;16.80;6.00
65574;PMS5003;52216;54.942;73.394;2022-07-01T15:25:59;19.00;18.00;8.50
65574;PMS5003;52216;54.942;73.394;2022-07-01T15:29:09;17.00;17.00;7.00
65574;PMS5003;52216;54.942;73.394;2022-07-01T15:32:11;16.75;16.75;6.00
65574;PMS5003;52216;54.942;73.394;2022-07-01T15:35:15;19.00;19.00;7.00
65574;PMS5003;52216;54.942;73.394;2022-07-01T15:38:18;16.75;16.75;7.00
65574;PMS5003;52216;54.942;73.394;2022-07-01T15:41:20;17.50;16.00;6.00
65574;PMS5003;52216;54.942;73.394;2022-07-01T15:44:24;15.00;12.00;5.00
65574;PMS5003;52216;54.942;73.394;2022-07-01T15:47:26;16.50;15.50;7.00
65574;PMS5003;52216;54.942;73.394;2022-07-01T15:50:47;17.00;15.00;6.00
65574;PMS5003;52216;54.942;73.394;2022-07-01T15:53:51;14.75;12.00;5.00
65574;PMS5003;52216;54.942;73.394;2022-07-01T15:56:58;17.00;13.00;6.00
65574;PMS5003;52216;54.942;73.394;2022-07-01T16:00:00;17.00;15.00;7.00
65574;PMS5003;52216;54.942;73.394;2022-07-01T16:03:03;18.00;14.00;6.00
65574;PMS5003;52216;54.942;73.394;2022-07-01T16:06:07;16.75;12.00;6.75
65574;PMS5003;52216;54.942;73.394;2022-07-01T16:09:09;17.00;13.00;6.00
65574;PMS5003;52216;54.942;73.394;2022-07-01T16:12:12;16.25;13.00;7.00
65574;PMS5003;52216;54.942;73.394;2022-07-01T16:15:25;15.50;13.25;5.00
65574;PMS5003;52216;54.942;73.394;2022-07-01T16:18:29;16.00;14.00;4.00
65574;PMS5003;52216;54.942;73.394;2022-07-01T16:21:35;16.75;14.00;7.00
65574;PMS5003;52216;54.942;73.394;2022-07-01T16:24:47;16.50;15.00;6.00
65574;PMS5003;52216;54.942;73.394;2022-07-01T16:27:49;17.00;15.00;7.00
65574;PMS5003;52216;54.942;73.394;2022-07-01T16:31:03;18.00;17.00;7.00
65574;PMS5003;52216;54.942;73.394;2022-07-01T16:34:06;18.00;17.50;9.25
65574;PMS5003;52216;54.942;73.394;2022-07-01T16:37:12;18.00;18.00;9.00
65574;PMS5003;52216;54.942;73.394;2022-07-01T16:40:16;18.50;18.50;8.75
65574;PMS5003;52216;54.942;73.394;2022-07-01T16:43:26;21.00;20.60;9.00
65574;PMS5003;52216;54.942;73.394;2022-07-01T16:46:33;21.00;21.00;10.80
65574;PMS5003;52216;54.942;73.394;2022-07-01T16:49:41;21.00;20.25;12.00
65574;PMS5003;52216;54.942;73.394;2022-07-01T16:52:51;24.80;23.40;14.00
65574;PMS5003;52216;54.942;73.394;2022-07-01T16:56:04;23.75;22.50;12.25
65574;PMS5003;52216;54.942;73.394;2022-07-01T16:59:08;22.60;19.00;10.40
65574;PMS5003;52216;54.942;73.394;2022-07-01T17:02:11;20.00;18.00;9.00
65574;PMS5003;52216;54.942;73.394;2022-07-01T17:05:14;21.60;18.80;9.80
65574;PMS5003;52216;54.942;73.394;2022-07-01T17:08:22;20.50;17.50;9.00
65574;PMS5003;52216;54.942;73.394;2022-07-01T17:11:26;19.00;17.00;8.00
65574;PMS5003;52216;54.942;73.394;2022-07-01T17:14:29;19.00;18.75;9.00
65574;PMS5003;52216;54.942;73.394;2022-07-01T17:17:32;18.00;18.00;9.00
65574;PMS5003;52216;54.942;73.394;2022-07-01T17:20:35;16.00;16.00;7.25
65574;PMS5003;52216;54.942;73.394;2022-07-01T17:23:55;16.00;16.00;7.75
65574;PMS5003;52216;54.942;73.394;2022-07-01T17:30:21;17.00;17.00;8.75
65574;PMS5003;52216;54.942;73.394;2022-07-01T17:33:25;18.00;18.00;8.25
65574;PMS5003;52216;54.942;73.394;2022-07-01T17:36:28;18.50;18.50;8.00
65574;PMS5003;52216;54.942;73.394;2022-07-01T17:39:35;18.00;18.00;7.25
65574;PMS5003;52216;54.942;73.394;2022-07-01T17:42:38;19.00;19.00;8.00
65574;PMS5003;52216;54.942;73.394;2022-07-01T17:45:41;18.00;18.00;7.00
65574;PMS5003;52216;54.942;73.394;2022-07-01T17:48:44;18.00;18.00;8.75
65574;PMS5003;52216;54.942;73.394;2022-07-01T17:51:46;19.00;18.00;8.00
65574;PMS5003;52216;54.942;73.394;2022-07-01T17:54:49;17.00;16.00;7.25
65574;PMS5003;52216;54.942;73.394;2022-07-01T17:57:53;18.25;16.00;7.00